Time;durP1;ratioP1;P1;durP2;ratioP2;P2;SDS_P1;SDS_P2;PMS_P1;PMS_P2;Temp;Humidity;BMP_temperature;BMP_pressure;BME280_temperature;BME280_humidity;BME280_pressure;Samples;Min_cycle;Max_cycle;Signal;HPM_P1;HPM_P2
2022/04/20 00:00:20;;;;;;;;;;;12.10;99.90;;;;;;5081760;28;20100;-89
2022/04/20 00:02:46;;;;;;;;;;;12.10;99.90;;;;;;5081012;28;20252;-89
2022/04/20 00:05:12;;;;;;;;;;;12.00;99.90;;;;;;5081666;28;20269;-89
2022/04/20 00:07:38;;;;;;;;;;;11.90;99.90;;;;;;5081718;28;19904;-89
2022/04/20 00:10:04;;;;;;;;;;;11.90;99.90;;;;;;5082949;28;20192;-89
2022/04/20 00:12:30;;;;;;;;;;;11.90;99.90;;;;;;5085210;28;19912;-89
2022/04/20 00:14:57;;;;;;;;;;;11.80;99.90;;;;;;5066771;28;21837;-89
2022/04/20 00:17:23;;;;;;;;;;;11.90;99.90;;;;;;5084893;28;19904;-89
2022/04/20 00:19:48;;;;;;;;;;;11.90;99.90;;;;;;5085048;28;19912;-88
2022/04/20 00:22:14;;;;;;;;;;;12.00;99.90;;;;;;5085020;28;19997;-89
2022/04/20 00:24:39;;;;;;;;;;;12.00;99.90;;;;;;5084819;28;20141;-89
2022/04/20 00:27:05;;;;;;;;;;;12.00;99.90;;;;;;5084901;28;19966;-88
2022/04/20 00:29:30;;;;;;;;;;;11.80;99.90;;;;;;5085005;28;19905;-89
2022/04/20 00:31:56;;;;;;;;;;;11.80;99.90;;;;;;5084769;28;19979;-89
2022/04/20 00:34:22;;;;;;;;;;;11.80;99.90;;;;;;5084643;28;20026;-89
2022/04/20 00:36:51;;;;;;;;;;;11.80;99.90;;;;;;5085140;28;20279;-89
2022/04/20 00:39:17;;;;;;;;;;;11.70;99.90;;;;;;5084864;28;20104;-89
2022/04/20 00:41:42;;;;;;;;;;;11.60;99.90;;;;;;5085025;28;19904;-89
2022/04/20 00:44:09;;;;;;;;;;;11.70;99.90;;;;;;5084877;28;19942;-89
2022/04/20 00:46:35;;;;;;;;;;;11.80;99.90;;;;;;5066584;28;19943;-89
2022/04/20 00:49:01;;;;;;;;;;;11.70;99.90;;;;;;5084339;28;19913;-89
2022/04/20 00:51:28;;;;;;;;;;;11.70;99.90;;;;;;5066688;28;19916;-89
2022/04/20 00:53:57;;;;;;;;;;;11.80;99.90;;;;;;5084753;28;19958;-90
2022/04/20 00:56:22;;;;;;;;;;;11.70;99.90;;;;;;5084735;28;19916;-88
2022/04/20 00:58:48;;;;;;;;;;;11.70;99.90;;;;;;5084583;28;20006;-89
2022/04/20 01:01:14;;;;;;;;;;;11.70;99.90;;;;;;5084506;28;20146;-89
2022/04/20 01:03:39;;;;;;;;;;;11.80;99.90;;;;;;5089133;28;19904;-89
2022/04/20 01:06:05;;;;;;;;;;;11.90;99.90;;;;;;5087264;28;19904;-89
2022/04/20 01:08:31;;;;;;;;;;;11.90;99.90;;;;;;5084364;28;19912;-89
2022/04/20 01:10:56;;;;;;;;;;;11.90;99.90;;;;;;5084494;28;19905;-89
2022/04/20 01:13:22;;;;;;;;;;;11.80;99.90;;;;;;5066586;28;19983;-88
2022/04/20 01:15:48;;;;;;;;;;;11.70;99.90;;;;;;5066474;28;19904;-88
2022/04/20 01:18:14;;;;;;;;;;;11.60;99.90;;;;;;5083939;28;19904;-89
2022/04/20 01:20:40;;;;;;;;;;;11.60;99.90;;;;;;5083244;28;19904;-89
2022/04/20 01:23:06;;;;;;;;;;;11.50;99.90;;;;;;5064399;28;19924;-88
2022/04/20 01:25:31;;;;;;;;;;;11.60;99.90;;;;;;5065104;28;19940;-89
2022/04/20 01:27:57;;;;;;;;;;;11.50;99.90;;;;;;5084052;28;19909;-88
2022/04/20 01:30:22;;;;;;;;;;;11.40;99.90;;;;;;5066211;28;19979;-89
2022/04/20 01:32:48;;;;;;;;;;;11.40;99.90;;;;;;5083498;28;19919;-89
2022/04/20 01:35:13;;;;;;;;;;;11.40;99.90;;;;;;5083753;28;19942;-88
2022/04/20 01:37:39;;;;;;;;;;;11.30;99.90;;;;;;5065725;28;19905;-88
2022/04/20 01:40:05;;;;;;;;;;;11.20;99.90;;;;;;5083188;28;20204;-88
2022/04/20 01:42:32;;;;;;;;;;;11.20;99.90;;;;;;5083377;28;19904;-89
2022/04/20 01:44:58;;;;;;;;;;;11.20;99.90;;;;;;5083700;28;19904;-88
2022/04/20 01:47:26;;;;;;;;;;;11.10;99.90;;;;;;5083302;28;19975;-89
2022/04/20 01:49:52;;;;;;;;;;;11.10;99.90;;;;;;5065768;28;20220;-89
2022/04/20 01:52:17;;;;;;;;;;;11.00;99.90;;;;;;5083396;28;19995;-88
2022/04/20 01:54:43;;;;;;;;;;;11.00;99.90;;;;;;5083506;28;19905;-88
2022/04/20 01:57:08;;;;;;;;;;;11.00;99.90;;;;;;5083229;28;19911;-89
2022/04/20 01:59:34;;;;;;;;;;;10.80;99.90;;;;;;5083278;28;20207;-89
2022/04/20 02:04:43;;;;;;;;;;;10.90;99.90;;;;;;5082651;28;19912;-88
2022/04/20 02:07:09;;;;;;;;;;;10.80;99.90;;;;;;5083026;28;19904;-88
2022/04/20 02:09:35;;;;;;;;;;;10.70;99.90;;;;;;5083286;28;20123;-87
2022/04/20 02:12:00;;;;;;;;;;;10.70;99.90;;;;;;5083009;28;19920;-88
2022/04/20 02:14:26;;;;;;;;;;;10.70;99.90;;;;;;5083131;28;19941;-87
2022/04/20 02:16:52;;;;;;;;;;;10.60;99.90;;;;;;5083061;28;19950;-88
2022/04/20 02:19:18;;;;;;;;;;;10.70;99.90;;;;;;5082932;28;19905;-88
2022/04/20 02:21:43;;;;;;;;;;;10.70;99.90;;;;;;5082456;28;19975;-88
2022/04/20 02:24:10;;;;;;;;;;;10.60;99.90;;;;;;5082185;28;19935;-88
2022/04/20 02:26:36;;;;;;;;;;;10.60;99.90;;;;;;5082030;28;19904;-88
2022/04/20 02:29:02;;;;;;;;;;;10.50;99.90;;;;;;5082930;28;20201;-88
2022/04/20 02:31:27;;;;;;;;;;;10.40;99.90;;;;;;5082645;28;19911;-87
2022/04/20 02:33:53;;;;;;;;;;;10.50;99.90;;;;;;5082053;28;20157;-88
2022/04/20 02:36:18;;;;;;;;;;;10.50;99.90;;;;;;5064803;28;20096;-88
2022/04/20 02:38:44;;;;;;;;;;;10.50;99.90;;;;;;5082689;28;20139;-88
2022/04/20 02:41:10;;;;;;;;;;;10.50;99.90;;;;;;5064657;28;20189;-88
2022/04/20 02:43:35;;;;;;;;;;;10.50;99.90;;;;;;5082044;28;20208;-87
2022/04/20 02:46:02;;;;;;;;;;;10.50;99.90;;;;;;5064616;28;19946;-88
2022/04/20 02:48:27;;;;;;;;;;;10.50;99.90;;;;;;5064248;28;20105;-88
2022/04/20 02:50:53;;;;;;;;;;;10.60;99.90;;;;;;5064525;28;19904;-88
2022/04/20 02:53:18;;;;;;;;;;;10.60;99.90;;;;;;5063931;28;19913;-88
2022/04/20 02:55:44;;;;;;;;;;;10.60;99.90;;;;;;5064395;28;19911;-88
2022/04/20 02:58:09;;;;;;;;;;;10.60;99.90;;;;;;5065964;28;20262;-89
2022/04/20 03:00:35;;;;;;;;;;;10.50;99.90;;;;;;5083941;28;19904;-88
2022/04/20 03:03:00;;;;;;;;;;;10.50;99.90;;;;;;5081654;28;19912;-88
2022/04/20 03:05:26;;;;;;;;;;;10.50;99.90;;;;;;5082625;28;19919;-88
2022/04/20 03:07:51;;;;;;;;;;;10.50;99.90;;;;;;5082257;28;19904;-88
2022/04/20 03:10:17;;;;;;;;;;;10.40;99.90;;;;;;5082039;28;19912;-88
2022/04/20 03:12:43;;;;;;;;;;;10.40;99.90;;;;;;5081419;28;20100;-88
2022/04/20 03:15:08;;;;;;;;;;;10.30;99.90;;;;;;5081312;28;20272;-88
2022/04/20 03:17:34;;;;;;;;;;;10.30;99.90;;;;;;5081100;28;19904;-88
2022/04/20 03:19:59;;;;;;;;;;;10.30;99.90;;;;;;5081945;28;19950;-88
2022/04/20 03:22:25;;;;;;;;;;;10.40;99.90;;;;;;5081939;28;19924;-88
2022/04/20 03:24:51;;;;;;;;;;;10.40;99.90;;;;;;5064139;28;19931;-88
2022/04/20 03:27:16;;;;;;;;;;;10.40;99.90;;;;;;5063419;28;19971;-87
2022/04/20 03:29:42;;;;;;;;;;;10.40;99.90;;;;;;5064074;28;19917;-88
2022/04/20 03:32:09;;;;;;;;;;;10.40;99.90;;;;;;5063544;28;19908;-87
2022/04/20 03:34:35;;;;;;;;;;;10.40;99.90;;;;;;5063890;28;20138;-88
2022/04/20 03:37:00;;;;;;;;;;;10.40;99.90;;;;;;5064133;28;19908;-88
2022/04/20 03:39:26;;;;;;;;;;;10.30;99.90;;;;;;5063758;28;20203;-88
2022/04/20 03:41:51;;;;;;;;;;;10.30;99.90;;;;;;5063783;28;19974;-88
2022/04/20 03:44:18;;;;;;;;;;;10.30;99.90;;;;;;5063876;28;20248;-88
2022/04/20 03:46:43;;;;;;;;;;;10.30;99.90;;;;;;5068047;28;19916;-87
2022/04/20 03:49:09;;;;;;;;;;;10.30;99.90;;;;;;5085666;28;20111;-90
2022/04/20 03:51:34;;;;;;;;;;;10.20;99.90;;;;;;5085324;28;20105;-88
2022/04/20 03:54:00;;;;;;;;;;;10.20;99.90;;;;;;5068100;28;19904;-87
2022/04/20 03:56:25;;;;;;;;;;;10.30;99.90;;;;;;5085719;28;19913;-88
2022/04/20 03:58:51;;;;;;;;;;;10.20;99.90;;;;;;5085809;28;20011;-88
2022/04/20 04:01:16;;;;;;;;;;;10.20;99.90;;;;;;5068223;28;19908;-88
2022/04/20 04:03:42;;;;;;;;;;;10.30;99.90;;;;;;5084635;28;19904;-88
2022/04/20 04:06:07;;;;;;;;;;;10.30;99.90;;;;;;5085373;28;19943;-88
2022/04/20 04:08:33;;;;;;;;;;;10.30;99.90;;;;;;5084144;28;19911;-88
2022/04/20 04:10:58;;;;;;;;;;;10.40;99.90;;;;;;5067298;28;19905;-88
2022/04/20 04:13:24;;;;;;;;;;;10.40;99.90;;;;;;5085287;28;19919;-87
2022/04/20 04:15:50;;;;;;;;;;;10.50;99.90;;;;;;5067615;28;19911;-88
2022/04/20 04:18:16;;;;;;;;;;;10.40;99.90;;;;;;5067343;28;19904;-88
2022/04/20 04:20:41;;;;;;;;;;;10.30;99.90;;;;;;5083843;28;19904;-88
2022/04/20 04:23:07;;;;;;;;;;;10.30;99.90;;;;;;5067035;28;19916;-87
2022/04/20 04:25:32;;;;;;;;;;;10.30;99.90;;;;;;5084430;28;20077;-87
2022/04/20 04:27:58;;;;;;;;;;;10.20;99.90;;;;;;5085429;28;19904;-87
2022/04/20 04:30:23;;;;;;;;;;;10.20;99.90;;;;;;5085251;28;19904;-87
2022/04/20 04:32:51;;;;;;;;;;;10.20;99.90;;;;;;5084361;28;19920;-87
2022/04/20 04:35:17;;;;;;;;;;;10.10;99.90;;;;;;5067055;28;19958;-88
2022/04/20 04:37:43;;;;;;;;;;;10.00;99.90;;;;;;5067030;28;19912;-87
2022/04/20 04:40:09;;;;;;;;;;;10.10;99.90;;;;;;5084861;28;19904;-87
2022/04/20 04:42:34;;;;;;;;;;;10.00;99.90;;;;;;5066748;28;20097;-87
2022/04/20 04:48:36;;;;;;;;;;;10.00;99.90;;;;;;5066536;28;20189;-87
2022/04/20 04:50:29;;;;;;;;;;;10.00;99.90;;;;;;5084631;28;19972;-87
2022/04/20 04:52:55;;;;;;;;;;;10.10;99.90;;;;;;5085523;28;19912;-88
2022/04/20 04:55:20;;;;;;;;;;;10.10;99.90;;;;;;5068064;28;19927;-88
2022/04/20 04:57:46;;;;;;;;;;;10.00;99.90;;;;;;5084626;28;19905;-87
2022/04/20 05:00:12;;;;;;;;;;;10.00;99.90;;;;;;5084178;28;19905;-87
2022/04/20 05:02:37;;;;;;;;;;;10.00;99.90;;;;;;5066186;28;19904;-87
2022/04/20 05:05:04;;;;;;;;;;;10.00;99.90;;;;;;5066488;28;20081;-88
2022/04/20 05:07:31;;;;;;;;;;;9.90;99.90;;;;;;5066347;28;20093;-87
2022/04/20 05:09:56;;;;;;;;;;;9.90;99.90;;;;;;5083750;28;20145;-88
2022/04/20 05:12:22;;;;;;;;;;;10.00;99.90;;;;;;5066473;28;19912;-87
2022/04/20 05:14:47;;;;;;;;;;;10.00;99.90;;;;;;5066420;28;19911;-87
2022/04/20 05:17:13;;;;;;;;;;;10.00;99.90;;;;;;5083755;28;19904;-88
2022/04/20 05:19:38;;;;;;;;;;;10.00;99.90;;;;;;5083742;28;19904;-88
2022/04/20 05:22:04;;;;;;;;;;;10.00;99.90;;;;;;5083764;28;19916;-88
2022/04/20 05:24:30;;;;;;;;;;;10.10;99.90;;;;;;5066200;28;19965;-88
2022/04/20 05:26:55;;;;;;;;;;;10.20;99.90;;;;;;5066047;28;19905;-87
2022/04/20 05:29:21;;;;;;;;;;;10.20;99.90;;;;;;5083824;28;19904;-87
2022/04/20 05:31:47;;;;;;;;;;;10.10;99.90;;;;;;5083759;28;19956;-87
2022/04/20 05:34:12;;;;;;;;;;;10.20;99.90;;;;;;5083487;28;19909;-87
2022/04/20 05:42:06;;;;;;;;;;;10.10;99.90;;;;;;5083356;28;19950;-87
2022/04/20 05:44:31;;;;;;;;;;;10.10;99.90;;;;;;5065467;28;19904;-87
2022/04/20 05:46:57;;;;;;;;;;;10.00;99.90;;;;;;5082791;28;19977;-87
2022/04/20 05:49:24;;;;;;;;;;;10.00;99.90;;;;;;5065517;28;19911;-87
2022/04/20 05:51:49;;;;;;;;;;;10.00;99.90;;;;;;5065246;28;19908;-87
2022/04/20 05:54:15;;;;;;;;;;;10.00;99.90;;;;;;5064045;28;20185;-87
2022/04/20 05:56:40;;;;;;;;;;;10.00;99.90;;;;;;5082082;28;20139;-87
2022/04/20 05:59:06;;;;;;;;;;;10.00;99.90;;;;;;5082351;28;20158;-87
2022/04/20 06:01:31;;;;;;;;;;;10.00;99.90;;;;;;5065473;28;19909;-87
2022/04/20 06:04:00;;;;;;;;;;;10.00;99.90;;;;;;5082824;28;19904;-87
2022/04/20 06:06:25;;;;;;;;;;;10.00;99.90;;;;;;5064570;28;19926;-87
2022/04/20 06:08:51;;;;;;;;;;;10.00;99.90;;;;;;5082430;28;19909;-87
2022/04/20 06:11:16;;;;;;;;;;;10.10;99.90;;;;;;5082155;28;19949;-87
2022/04/20 06:13:42;;;;;;;;;;;10.10;99.90;;;;;;5082655;28;19924;-87
2022/04/20 06:16:07;;;;;;;;;;;10.10;99.90;;;;;;5064968;28;19905;-87
2022/04/20 06:18:33;;;;;;;;;;;10.20;99.90;;;;;;5081510;28;19915;-88
2022/04/20 06:20:59;;;;;;;;;;;10.20;99.90;;;;;;5082910;28;19940;-88
2022/04/20 06:23:24;;;;;;;;;;;10.20;99.90;;;;;;5060079;28;19916;-89
2022/04/20 06:25:56;;;;;;;;;;;10.10;99.90;;;;;;5053089;28;19931;-86
2022/04/20 06:28:25;;;;;;;;;;;10.20;99.90;;;;;;5070880;28;20001;-86
2022/04/20 06:30:51;;;;;;;;;;;10.30;99.90;;;;;;5071003;28;20049;-86
2022/04/20 06:33:17;;;;;;;;;;;10.40;99.90;;;;;;5069704;28;19917;-86
2022/04/20 06:35:43;;;;;;;;;;;10.50;99.90;;;;;;5070083;28;19912;-87
2022/04/20 06:38:08;;;;;;;;;;;10.50;99.90;;;;;;5070758;28;19914;-86
2022/04/20 06:40:34;;;;;;;;;;;10.60;99.90;;;;;;5070643;28;20003;-86
2022/04/20 06:43:00;;;;;;;;;;;10.60;99.90;;;;;;5070228;28;20000;-86
2022/04/20 06:45:25;;;;;;;;;;;10.40;99.90;;;;;;5052240;28;19916;-86
2022/04/20 06:47:51;;;;;;;;;;;10.50;99.90;;;;;;5070744;28;19966;-86
2022/04/20 06:50:16;;;;;;;;;;;10.40;99.90;;;;;;5077092;28;19913;-85
2022/04/20 07:00:55;;;;;;;;;;;10.20;99.90;;;;;;5072991;28;19954;-87
2022/04/20 07:03:20;;;;;;;;;;;10.10;99.90;;;;;;5080064;28;19904;-85
2022/04/20 07:05:46;;;;;;;;;;;10.10;99.90;;;;;;5081138;28;19904;-85
2022/04/20 07:08:11;;;;;;;;;;;10.10;99.90;;;;;;5080657;28;19916;-86
2022/04/20 07:10:37;;;;;;;;;;;10.20;99.90;;;;;;5081221;28;19904;-86
2022/04/20 07:13:02;;;;;;;;;;;10.20;99.90;;;;;;5081956;28;19991;-85
2022/04/20 07:15:28;;;;;;;;;;;10.20;99.90;;;;;;5081534;28;19987;-86
2022/04/20 07:17:53;;;;;;;;;;;10.20;99.90;;;;;;5078036;28;19908;-86
2022/04/20 07:20:19;;;;;;;;;;;10.10;99.90;;;;;;5077399;28;19963;-86
2022/04/20 07:22:48;;;;;;;;;;;10.20;99.90;;;;;;5081382;28;19961;-86
2022/04/20 07:25:14;;;;;;;;;;;10.30;99.90;;;;;;5081451;28;20262;-86
2022/04/20 07:27:40;;;;;;;;;;;10.50;99.90;;;;;;5081063;28;20227;-86
2022/04/20 07:30:06;;;;;;;;;;;10.60;99.90;;;;;;5080762;28;19904;-85
2022/04/20 07:32:31;;;;;;;;;;;10.60;99.90;;;;;;5081296;28;19913;-86
2022/04/20 07:34:57;;;;;;;;;;;10.60;99.90;;;;;;5081513;28;19905;-85
2022/04/20 07:37:23;;;;;;;;;;;10.60;99.90;;;;;;5081229;28;20115;-86
2022/04/20 07:39:48;;;;;;;;;;;10.60;99.90;;;;;;5080895;28;19901;-85
2022/04/20 07:42:14;;;;;;;;;;;10.50;99.90;;;;;;5062249;28;19909;-82
2022/04/20 07:44:39;;;;;;;;;;;10.50;99.90;;;;;;5077819;28;19904;-90
2022/04/20 07:47:10;;;;;;;;;;;10.60;99.90;;;;;;5058599;28;19995;-94
2022/04/20 07:52:28;;;;;;;;;;;10.70;99.90;;;;;;5082438;28;19966;-94
2022/04/20 07:54:54;;;;;;;;;;;10.80;99.90;;;;;;5062498;28;19998;-90
2022/04/20 07:57:20;;;;;;;;;;;10.90;99.90;;;;;;5062978;28;19909;-90
2022/04/20 07:59:45;;;;;;;;;;;10.90;99.90;;;;;;5063694;28;19905;-90
2022/04/20 08:02:11;;;;;;;;;;;11.10;99.90;;;;;;5063124;28;19908;-91
2022/04/20 08:04:37;;;;;;;;;;;11.00;99.90;;;;;;5063172;28;19908;-91
2022/04/20 08:07:02;;;;;;;;;;;11.00;99.90;;;;;;5080055;28;19972;-92
2022/04/20 08:09:29;;;;;;;;;;;11.10;99.90;;;;;;5062593;28;19911;-91
2022/04/20 08:11:54;;;;;;;;;;;11.10;99.90;;;;;;5062963;28;19908;-89
2022/04/20 08:14:20;;;;;;;;;;;11.10;99.90;;;;;;5080954;28;19915;-93
2022/04/20 08:16:47;;;;;;;;;;;11.10;99.90;;;;;;5062833;28;19911;-90
2022/04/20 08:19:12;;;;;;;;;;;11.10;99.90;;;;;;5077973;28;19951;-87
2022/04/20 08:21:38;;;;;;;;;;;11.10;99.90;;;;;;5069264;28;20380;-87
2022/04/20 08:24:03;;;;;;;;;;;11.10;99.90;;;;;;5069775;28;20289;-87
2022/04/20 08:26:29;;;;;;;;;;;11.10;99.90;;;;;;5069662;28;20109;-88
2022/04/20 08:28:55;;;;;;;;;;;11.10;99.90;;;;;;5051425;28;20288;-88
2022/04/20 08:31:20;;;;;;;;;;;11.00;99.90;;;;;;5071639;28;19916;-88
2022/04/20 08:33:46;;;;;;;;;;;10.90;99.90;;;;;;5074643;28;19931;-90
2022/04/20 08:36:12;;;;;;;;;;;10.90;99.90;;;;;;5073231;28;19908;-88
2022/04/20 08:38:38;;;;;;;;;;;10.90;99.90;;;;;;5073630;28;20485;-89
2022/04/20 08:41:04;;;;;;;;;;;10.80;99.90;;;;;;5055382;28;19908;-89
2022/04/20 08:43:30;;;;;;;;;;;10.90;99.90;;;;;;5078416;28;19909;-90
2022/04/20 08:45:58;;;;;;;;;;;10.90;99.90;;;;;;5081595;28;19913;-90
2022/04/20 08:48:24;;;;;;;;;;;10.90;99.90;;;;;;5055358;28;19912;-87
2022/04/20 08:50:51;;;;;;;;;;;10.90;99.90;;;;;;5077846;28;19931;-79
2022/04/20 08:53:18;;;;;;;;;;;11.00;99.90;;;;;;5083562;28;20188;-78
2022/04/20 08:55:45;;;;;;;;;;;11.10;99.90;;;;;;5083967;28;19912;-78
2022/04/20 08:58:10;;;;;;;;;;;11.20;99.90;;;;;;5083539;28;19904;-77
2022/04/20 09:00:36;;;;;;;;;;;11.30;99.90;;;;;;5083193;28;19951;-76
2022/04/20 09:03:03;;;;;;;;;;;11.30;99.90;;;;;;5084032;28;19983;-78
2022/04/20 09:05:29;;;;;;;;;;;11.30;99.90;;;;;;5083458;28;19948;-78
2022/04/20 09:07:55;;;;;;;;;;;11.40;99.90;;;;;;5083934;28;20262;-77
2022/04/20 09:10:21;;;;;;;;;;;11.50;99.90;;;;;;5083688;28;19904;-78
2022/04/20 09:12:47;;;;;;;;;;;11.40;99.90;;;;;;5083270;28;19912;-78
2022/04/20 09:15:27;;;;;;;;;;;11.40;99.90;;;;;;5083830;28;20368;-78
2022/04/20 09:17:52;;;;;;;;;;;11.30;99.90;;;;;;5083799;28;19905;-77
2022/04/20 09:20:18;;;;;;;;;;;11.30;99.90;;;;;;5083578;28;19919;-78
2022/04/20 09:23:03;;;;;;;;;;;11.30;99.90;;;;;;5084011;28;19948;-78
2022/04/20 09:25:34;;;;;;;;;;;11.40;99.90;;;;;;5065676;28;20206;-78
2022/04/20 09:28:00;;;;;;;;;;;11.40;99.90;;;;;;5083288;28;19904;-78
2022/04/20 09:30:31;;;;;;;;;;;11.50;99.90;;;;;;5083194;28;19911;-76
2022/04/20 09:32:56;;;;;;;;;;;11.60;99.90;;;;;;5083225;28;20179;-76
2022/04/20 09:35:22;;;;;;;;;;;11.60;99.90;;;;;;5082927;28;19962;-76
2022/04/20 09:38:04;;;;;;;;;;;11.70;99.90;;;;;;5082431;28;19908;-78
2022/04/20 09:40:31;;;;;;;;;;;11.70;99.90;;;;;;5076954;28;20150;-77
2022/04/20 09:43:06;;;;;;;;;;;11.80;99.90;;;;;;5075511;28;19944;-77
2022/04/20 09:45:33;;;;;;;;;;;11.90;99.90;;;;;;5083590;28;19904;-77
2022/04/20 09:51:05;;;;;;;;;;;12.00;99.90;;;;;;5071647;28;19915;-78
2022/04/20 09:53:33;;;;;;;;;;;12.10;99.90;;;;;;5078637;28;19964;-77
2022/04/20 09:56:14;;;;;;;;;;;12.20;99.90;;;;;;5073523;28;19915;-77
2022/04/20 09:58:39;;;;;;;;;;;12.30;99.90;;;;;;5076946;28;19908;-77
2022/04/20 10:01:06;;;;;;;;;;;12.30;99.90;;;;;;5079928;28;19941;-76
2022/04/20 10:03:33;;;;;;;;;;;12.40;99.90;;;;;;5077267;28;19909;-76
2022/04/20 10:05:59;;;;;;;;;;;12.30;99.90;;;;;;5074638;28;20104;-76
2022/04/20 10:08:25;;;;;;;;;;;12.20;99.90;;;;;;5080998;28;20261;-77
2022/04/20 10:10:52;;;;;;;;;;;12.40;99.90;;;;;;5082634;28;19905;-77
2022/04/20 10:13:18;;;;;;;;;;;12.60;99.90;;;;;;5082337;28;19913;-77
2022/04/20 10:18:29;;;;;;;;;;;13.00;99.90;;;;;;5079052;28;19943;-77
2022/04/20 10:20:56;;;;;;;;;;;13.10;99.90;;;;;;5081708;28;20251;-77
2022/04/20 10:23:22;;;;;;;;;;;13.20;99.90;;;;;;5081866;28;20158;-77
2022/04/20 10:25:50;;;;;;;;;;;13.40;99.90;;;;;;5081743;28;19904;-77
2022/04/20 10:28:36;;;;;;;;;;;13.60;99.90;;;;;;5081990;28;19943;-77
2022/04/20 10:31:20;;;;;;;;;;;13.80;99.90;;;;;;5081921;28;19916;-78
2022/04/20 10:33:46;;;;;;;;;;;14.00;99.90;;;;;;5081228;28;19920;-77
2022/04/20 10:36:14;;;;;;;;;;;14.10;99.90;;;;;;5081727;28;19904;-77
2022/04/20 10:38:40;;;;;;;;;;;14.20;99.90;;;;;;5069002;28;20161;-77
2022/04/20 10:41:08;;;;;;;;;;;14.30;99.90;;;;;;5057367;28;19944;-77
2022/04/20 10:43:35;;;;;;;;;;;14.60;99.90;;;;;;5053030;28;19974;-77
2022/04/20 10:46:01;;;;;;;;;;;14.70;99.90;;;;;;5058449;28;19908;-77
2022/04/20 10:48:26;;;;;;;;;;;14.60;99.90;;;;;;5074885;28;20148;-77
2022/04/20 10:51:11;;;;;;;;;;;14.60;99.90;;;;;;5071293;28;20313;-77
2022/04/20 10:53:37;;;;;;;;;;;14.80;99.90;;;;;;5071042;28;19917;-77
2022/04/20 10:56:03;;;;;;;;;;;15.10;99.90;;;;;;5079756;28;20253;-77
2022/04/20 10:58:28;;;;;;;;;;;15.40;99.90;;;;;;5082311;28;20100;-77
2022/04/20 11:01:06;;;;;;;;;;;15.50;99.90;;;;;;5081797;28;19904;-77
2022/04/20 11:03:51;;;;;;;;;;;15.50;99.90;;;;;;5081367;28;19905;-77
2022/04/20 11:06:16;;;;;;;;;;;15.60;99.90;;;;;;5063157;28;19905;-77
2022/04/20 11:08:42;;;;;;;;;;;15.70;99.90;;;;;;5081577;28;19943;-77
2022/04/20 11:19:50;;;;;;;;;;;15.30;99.90;;;;;;5081450;28;19955;-77
2022/04/20 11:22:15;;;;;;;;;;;15.40;99.90;;;;;;5081103;28;19917;-77
2022/04/20 11:24:42;;;;;;;;;;;15.50;99.90;;;;;;5080813;28;19911;-77
2022/04/20 11:27:08;;;;;;;;;;;15.50;99.90;;;;;;5080754;28;19905;-77
2022/04/20 11:29:34;;;;;;;;;;;15.40;99.90;;;;;;5080982;28;19909;-77
2022/04/20 11:31:59;;;;;;;;;;;15.30;99.90;;;;;;5080638;28;19916;-77
2022/04/20 11:34:28;;;;;;;;;;;15.30;99.90;;;;;;5062091;28;19976;-76
2022/04/20 11:36:55;;;;;;;;;;;15.40;99.90;;;;;;5081073;28;19905;-76
2022/04/20 11:39:22;;;;;;;;;;;15.50;99.90;;;;;;5063379;28;19905;-76
2022/04/20 11:41:49;;;;;;;;;;;15.60;99.90;;;;;;5081577;28;19904;-76
2022/04/20 11:44:19;;;;;;;;;;;15.70;99.90;;;;;;5081550;28;19904;-76
2022/04/20 11:46:45;;;;;;;;;;;15.60;99.90;;;;;;5081745;28;20147;-77
2022/04/20 11:49:11;;;;;;;;;;;15.70;99.90;;;;;;5074236;28;19913;-76
2022/04/20 11:51:37;;;;;;;;;;;15.80;99.90;;;;;;5070280;28;19909;-76
2022/04/20 11:54:03;;;;;;;;;;;15.90;99.90;;;;;;5070270;28;19916;-76
2022/04/20 11:56:33;;;;;;;;;;;15.90;99.90;;;;;;5073431;28;19912;-76
2022/04/20 11:58:59;;;;;;;;;;;16.00;99.90;;;;;;5072109;28;19959;-76
2022/04/20 12:01:25;;;;;;;;;;;16.10;99.90;;;;;;5078011;28;19937;-76
2022/04/20 12:03:51;;;;;;;;;;;16.10;99.90;;;;;;5080740;28;19987;-76
2022/04/20 12:06:18;;;;;;;;;;;16.10;99.90;;;;;;5078967;28;19909;-76
2022/04/20 12:08:44;;;;;;;;;;;16.10;99.90;;;;;;5063486;28;19991;-79
2022/04/20 12:11:11;;;;;;;;;;;16.10;99.90;;;;;;5076344;28;19955;-76
2022/04/20 12:13:37;;;;;;;;;;;16.20;99.90;;;;;;5074119;28;20006;-76
2022/04/20 12:16:04;;;;;;;;;;;16.30;99.90;;;;;;5073199;28;20289;-76
2022/04/20 12:18:32;;;;;;;;;;;16.50;99.90;;;;;;5074315;28;19934;-76
2022/04/20 12:20:59;;;;;;;;;;;16.60;99.90;;;;;;5075868;28;19974;-76
2022/04/20 12:23:32;;;;;;;;;;;16.80;99.90;;;;;;5074399;28;20368;-76
2022/04/20 12:25:58;;;;;;;;;;;17.00;99.90;;;;;;5074429;28;19992;-76
2022/04/20 12:28:36;;;;;;;;;;;16.90;99.90;;;;;;5081192;28;20161;-76
2022/04/20 12:31:02;;;;;;;;;;;16.90;99.90;;;;;;5082679;28;19916;-77
2022/04/20 12:33:28;;;;;;;;;;;16.90;99.90;;;;;;5080739;28;20258;-76
2022/04/20 12:36:23;;;;;;;;;;;16.70;99.90;;;;;;5080872;28;19913;-77
2022/04/20 12:38:50;;;;;;;;;;;16.70;99.90;;;;;;5060243;28;19908;-76
2022/04/20 12:41:37;;;;;;;;;;;16.60;99.90;;;;;;5081992;28;19994;-77
2022/04/20 12:44:21;;;;;;;;;;;16.80;99.90;;;;;;5078532;28;19909;-76
2022/04/20 12:46:47;;;;;;;;;;;17.00;99.90;;;;;;5081466;28;19904;-76
2022/04/20 12:49:25;;;;;;;;;;;17.20;99.90;;;;;;5081826;28;19935;-76
2022/04/20 12:51:51;;;;;;;;;;;17.30;99.90;;;;;;5079211;28;19909;-76
2022/04/20 12:54:24;;;;;;;;;;;17.40;99.90;;;;;;5083924;28;19911;-76
2022/04/20 13:02:18;;;;;;;;;;;18.00;99.90;;;;;;5080169;28;20007;-76
2022/04/20 13:04:47;;;;;;;;;;;18.10;99.90;;;;;;5080271;28;19912;-77
2022/04/20 13:07:15;;;;;;;;;;;18.30;99.90;;;;;;5080316;28;19954;-76
2022/04/20 13:09:41;;;;;;;;;;;18.30;99.90;;;;;;5060721;28;19912;-77
2022/04/20 13:12:07;;;;;;;;;;;18.60;99.90;;;;;;5075624;28;19970;-77
2022/04/20 13:14:33;;;;;;;;;;;18.90;99.90;;;;;;5077897;28;19908;-76
2022/04/20 13:16:58;;;;;;;;;;;18.80;99.90;;;;;;5074767;28;19909;-77
2022/04/20 13:19:24;;;;;;;;;;;18.90;99.90;;;;;;5076016;28;19916;-76
2022/04/20 13:21:49;;;;;;;;;;;18.80;99.90;;;;;;5076630;28;19932;-77
2022/04/20 13:27:54;;;;;;;;;;;18.70;99.90;;;;;;5060219;28;19951;-76
2022/04/20 13:29:47;;;;;;;;;;;18.80;99.90;;;;;;5079740;28;19966;-76
2022/04/20 13:32:14;;;;;;;;;;;18.80;99.90;;;;;;5076731;28;19916;-77
2022/04/20 13:34:41;;;;;;;;;;;18.70;99.90;;;;;;5077289;28;19920;-77
2022/04/20 13:37:06;;;;;;;;;;;18.60;99.90;;;;;;5082877;28;19940;-76
2022/04/20 13:39:32;;;;;;;;;;;18.60;99.90;;;;;;5082775;28;20232;-76
2022/04/20 13:41:57;;;;;;;;;;;18.70;99.90;;;;;;5080004;28;20010;-77
2022/04/20 13:44:23;;;;;;;;;;;18.60;99.90;;;;;;5057029;28;20012;-77
2022/04/20 13:46:49;;;;;;;;;;;18.30;99.90;;;;;;5074375;28;19919;-77
2022/04/20 13:49:15;;;;;;;;;;;17.90;99.90;;;;;;5055385;28;19916;-77
2022/04/20 13:51:41;;;;;;;;;;;17.40;99.90;;;;;;5082473;28;19916;-77
2022/04/20 13:54:07;;;;;;;;;;;17.20;99.90;;;;;;5077679;28;19915;-77
2022/04/20 13:56:32;;;;;;;;;;;17.00;99.90;;;;;;5079802;28;19913;-77
2022/04/20 13:58:58;;;;;;;;;;;16.80;99.90;;;;;;5081727;28;19940;-77
2022/04/20 14:01:24;;;;;;;;;;;16.70;99.90;;;;;;5083342;28;19915;-77
2022/04/20 14:03:49;;;;;;;;;;;16.60;99.90;;;;;;5083151;28;19905;-78
2022/04/20 14:06:15;;;;;;;;;;;16.60;99.90;;;;;;5082579;28;20089;-77
2022/04/20 14:08:40;;;;;;;;;;;16.70;99.90;;;;;;5082697;28;19966;-76
2022/04/20 14:11:06;;;;;;;;;;;16.70;99.90;;;;;;5082034;28;19904;-77
2022/04/20 14:13:32;;;;;;;;;;;16.70;99.90;;;;;;5082339;28;19912;-77
2022/04/20 14:15:57;;;;;;;;;;;16.60;99.90;;;;;;5063986;28;19911;-77
2022/04/20 14:18:24;;;;;;;;;;;16.50;99.90;;;;;;5082179;28;19917;-77
2022/04/20 14:20:49;;;;;;;;;;;16.50;99.90;;;;;;5074782;28;19908;-77
2022/04/20 14:23:15;;;;;;;;;;;16.40;99.90;;;;;;5081808;28;19919;-77
2022/04/20 14:33:53;;;;;;;;;;;16.20;99.90;;;;;;5081907;28;19955;-76
2022/04/20 14:36:18;;;;;;;;;;;16.20;99.90;;;;;;5081361;28;19904;-77
2022/04/20 14:38:44;;;;;;;;;;;16.20;99.90;;;;;;5081488;28;19943;-76
2022/04/20 14:41:11;;;;;;;;;;;16.10;99.90;;;;;;5080814;28;19904;-76
2022/04/20 14:43:36;;;;;;;;;;;16.00;99.90;;;;;;5081253;28;19911;-77
2022/04/20 14:46:02;;;;;;;;;;;16.10;99.90;;;;;;5081501;28;19905;-76
2022/04/20 14:48:27;;;;;;;;;;;16.00;99.90;;;;;;5081688;28;19975;-77
2022/04/20 14:50:53;;;;;;;;;;;16.00;99.90;;;;;;5081196;28;19975;-77
2022/04/20 14:53:19;;;;;;;;;;;15.90;99.90;;;;;;5080572;28;19971;-76
2022/04/20 14:55:44;;;;;;;;;;;15.90;99.90;;;;;;5081117;28;20073;-77
2022/04/20 14:58:10;;;;;;;;;;;15.90;99.90;;;;;;5081564;28;19912;-76
2022/04/20 15:00:37;;;;;;;;;;;15.80;99.90;;;;;;5081612;28;19980;-76
2022/04/20 15:03:03;;;;;;;;;;;16.00;99.90;;;;;;5081586;28;20193;-77
2022/04/20 15:05:29;;;;;;;;;;;16.00;99.90;;;;;;5081262;28;19920;-77